createdAt,value
2022-08-01T00:00:57.302Z,1.43
2022-08-01T00:03:25.255Z,2.03
2022-08-01T00:05:53.189Z,1.83
2022-08-01T00:08:21.159Z,1.63
2022-08-01T00:10:49.252Z,1.50
2022-08-01T00:13:18.556Z,1.40
2022-08-01T00:15:53.735Z,2.00
2022-08-01T00:18:22.582Z,1.60
2022-08-01T00:20:50.572Z,1.40
2022-08-01T00:23:18.544Z,1.70
2022-08-01T00:25:46.510Z,1.50
2022-08-01T00:28:14.562Z,1.80
2022-08-01T00:30:43.884Z,1.27
2022-08-01T00:33:11.843Z,1.23
2022-08-01T00:35:39.790Z,2.30
2022-08-01T00:38:07.730Z,1.50
2022-08-01T00:40:35.768Z,1.40
2022-08-01T00:43:03.700Z,1.80
2022-08-01T00:45:31.683Z,1.90
2022-08-01T00:48:00.994Z,1.37
2022-08-01T00:50:29.194Z,1.57
2022-08-01T00:52:57.577Z,1.37
2022-08-01T00:55:25.943Z,1.90
2022-08-01T00:58:05.292Z,1.90
2022-08-01T01:00:52.384Z,1.23
2022-08-01T01:03:49.422Z,1.80
2022-08-01T01:06:29.113Z,1.93
2022-08-01T01:09:08.907Z,1.40
2022-08-01T01:11:46.180Z,1.60
2022-08-01T01:14:23.690Z,1.77
2022-08-01T01:16:53.378Z,1.30
2022-08-01T01:19:30.180Z,1.57
2022-08-01T01:22:29.280Z,1.40
2022-08-01T01:25:11.398Z,1.53
2022-08-01T01:27:51.474Z,1.30
2022-08-01T01:30:21.209Z,1.40
2022-08-01T01:32:51.976Z,1.90
2022-08-01T01:35:24.810Z,1.30
2022-08-01T01:37:58.132Z,1.70
2022-08-01T01:40:27.759Z,1.40
2022-08-01T01:43:17.605Z,1.60
2022-08-01T01:45:49.126Z,1.90
2022-08-01T01:48:23.405Z,2.10
2022-08-01T01:50:53.252Z,1.57
2022-08-01T01:53:24.453Z,1.93
2022-08-01T01:55:55.470Z,1.60
2022-08-01T01:58:26.349Z,1.63
2022-08-01T02:00:58.929Z,1.70
2022-08-01T02:03:32.127Z,1.67
2022-08-01T02:06:01.300Z,1.47
2022-08-01T02:08:31.834Z,1.57
2022-08-01T02:11:18.541Z,1.57
2022-08-01T02:13:50.233Z,1.90
2022-08-01T02:16:20.939Z,1.90
2022-08-01T02:18:49.001Z,1.57
2022-08-01T02:21:24.228Z,2.27
2022-08-01T02:23:53.523Z,1.60
2022-08-01T02:26:24.786Z,1.63
2022-08-01T02:28:58.465Z,1.57
2022-08-01T02:31:28.935Z,1.73
2022-08-01T02:34:03.160Z,1.67
2022-08-01T02:36:33.730Z,1.40
2022-08-01T02:39:04.901Z,1.20
2022-08-01T02:41:34.988Z,1.40
2022-08-01T02:44:07.445Z,1.40
2022-08-01T02:46:40.406Z,1.20
2022-08-01T02:49:11.256Z,1.37
2022-08-01T02:51:41.285Z,1.20
2022-08-01T02:54:10.740Z,1.23
2022-08-01T02:56:41.742Z,1.50
2022-08-01T02:59:14.456Z,1.70
2022-08-01T03:01:46.806Z,1.40
2022-08-01T03:04:18.820Z,1.53
2022-08-01T03:06:47.891Z,1.50
2022-08-01T03:09:17.105Z,1.40
2022-08-01T03:11:47.298Z,1.47
2022-08-01T03:14:16.666Z,1.10
2022-08-01T03:16:47.758Z,1.40
2022-08-01T03:19:16.684Z,1.20
2022-08-01T03:21:46.421Z,1.10
2022-08-01T03:24:15.879Z,1.53
2022-08-01T03:26:44.702Z,1.13
2022-08-01T03:29:17.768Z,1.10
2022-08-01T03:31:48.384Z,1.43
2022-08-01T03:34:16.527Z,1.30
2022-08-01T03:36:50.039Z,1.50
2022-08-01T03:39:20.250Z,1.20
2022-08-01T03:41:56.788Z,1.30
2022-08-01T03:44:28.335Z,1.30
2022-08-01T03:47:02.011Z,1.80
2022-08-01T03:49:32.939Z,1.77
2022-08-01T03:52:05.955Z,1.50
2022-08-01T03:54:37.297Z,1.40
2022-08-01T03:57:07.166Z,1.80
2022-08-01T03:59:38.819Z,1.10
2022-08-01T04:02:09.171Z,1.20
2022-08-01T04:04:37.574Z,2.00
2022-08-01T04:07:07.790Z,1.37
2022-08-01T04:09:35.881Z,1.30
2022-08-01T04:12:12.521Z,1.50
2022-08-01T04:14:40.729Z,2.13
2022-08-01T04:17:10.040Z,1.23
2022-08-01T04:19:38.205Z,1.60
2022-08-01T04:22:07.104Z,1.27
2022-08-01T04:24:37.377Z,1.00
2022-08-01T04:27:11.051Z,1.50
2022-08-01T04:29:40.091Z,1.33
2022-08-01T04:32:12.545Z,1.40
2022-08-01T04:34:43.016Z,1.70
2022-08-01T04:37:13.260Z,1.50
2022-08-01T04:39:50.450Z,1.53
2022-08-01T04:42:25.107Z,1.00
2022-08-01T04:44:58.169Z,1.80
2022-08-01T04:47:27.937Z,1.53
2022-08-01T04:49:57.663Z,1.73
2022-08-01T04:52:25.884Z,1.70
2022-08-01T04:54:53.840Z,1.30
2022-08-01T04:57:21.797Z,1.23
2022-08-01T04:59:50.565Z,1.30
2022-08-01T05:02:20.000Z,1.33
2022-08-01T05:04:49.327Z,1.33
2022-08-01T05:07:17.814Z,1.33
2022-08-01T05:09:47.066Z,1.40
2022-08-01T05:12:15.482Z,1.37
2022-08-01T05:14:43.438Z,1.27
2022-08-01T05:17:12.027Z,1.70
2022-08-01T05:19:40.965Z,1.17
2022-08-01T05:22:11.589Z,1.70
2022-08-01T05:24:41.681Z,1.13
2022-08-01T05:27:11.569Z,1.20
2022-08-01T05:29:44.862Z,1.43
2022-08-01T05:32:13.176Z,1.50
2022-08-01T05:34:41.159Z,1.40
2022-08-01T05:37:10.652Z,1.50
2022-08-01T05:39:38.699Z,1.40
2022-08-01T05:42:07.064Z,1.07
2022-08-01T05:44:35.372Z,1.57
2022-08-01T05:47:04.759Z,1.60
2022-08-01T05:49:32.798Z,1.17
2022-08-01T05:52:02.826Z,1.40
2022-08-01T05:54:32.654Z,1.20
2022-08-01T05:57:02.659Z,1.20
2022-08-01T05:59:30.807Z,1.20
2022-08-01T06:01:58.951Z,1.60
2022-08-01T06:04:27.258Z,1.47
2022-08-01T06:06:55.224Z,1.20
2022-08-01T06:09:23.288Z,1.37
2022-08-01T06:11:52.625Z,1.17
2022-08-01T06:14:20.802Z,1.30
2022-08-01T06:16:48.794Z,1.20
2022-08-01T06:19:16.843Z,1.30
2022-08-01T06:21:44.823Z,1.33
2022-08-01T06:24:12.781Z,1.20
2022-08-01T06:26:40.963Z,1.10
2022-08-01T06:29:10.322Z,1.27
2022-08-01T06:31:40.318Z,1.50
2022-08-01T06:34:08.275Z,1.13
2022-08-01T06:36:36.298Z,1.50
2022-08-01T06:39:04.423Z,1.13
2022-08-01T06:41:32.370Z,1.20
2022-08-01T06:44:03.203Z,1.60
2022-08-01T06:46:32.703Z,1.43
2022-08-01T06:49:03.086Z,1.60
2022-08-01T06:51:31.242Z,1.20
2022-08-01T06:53:59.196Z,1.03
2022-08-01T06:56:27.176Z,1.27
2022-08-01T06:58:57.301Z,1.03
2022-08-01T07:01:25.366Z,1.10
2022-08-01T07:03:55.094Z,1.70
2022-08-01T07:06:24.439Z,1.70
2022-08-01T07:08:52.528Z,1.40
2022-08-01T07:11:20.578Z,1.33
2022-08-01T07:13:48.541Z,1.10
2022-08-01T07:16:17.684Z,1.23
2022-08-01T07:18:45.711Z,1.47
2022-08-01T07:21:38.277Z,1.30
2022-08-01T07:24:02.940Z,1.53
2022-08-01T07:26:53.102Z,1.40
2022-08-01T07:29:23.687Z,1.30
2022-08-01T07:31:51.747Z,1.40
2022-08-01T07:34:19.703Z,1.60
2022-08-01T07:36:49.199Z,1.20
2022-08-01T07:39:17.156Z,1.20
2022-08-01T07:41:45.570Z,1.33
2022-08-01T07:44:33.063Z,1.10
2022-08-01T07:47:01.031Z,1.13
2022-08-01T07:49:29.192Z,1.87
2022-08-01T07:52:03.658Z,1.20
2022-08-01T07:54:33.754Z,1.00
2022-08-01T07:57:02.347Z,1.30
2022-08-01T07:59:30.375Z,0.97
2022-08-01T08:01:58.902Z,1.20
2022-08-01T08:04:27.262Z,1.00
2022-08-01T08:06:55.400Z,1.10
2022-08-01T08:09:24.895Z,2.00
2022-08-01T08:11:52.855Z,0.90
2022-08-01T08:14:23.722Z,1.40
2022-08-01T08:17:02.169Z,1.70
2022-08-01T08:19:38.392Z,1.10
2022-08-01T08:22:08.126Z,0.97
2022-08-01T08:24:46.543Z,1.37
2022-08-01T08:27:15.355Z,1.00
2022-08-01T08:29:43.379Z,1.10
2022-08-01T08:32:11.764Z,0.80
2022-08-01T08:34:39.710Z,1.00
2022-08-01T08:37:08.259Z,1.50
2022-08-01T08:39:41.216Z,0.83
2022-08-01T08:42:11.158Z,1.10
2022-08-01T08:44:39.975Z,0.90
2022-08-01T08:47:18.714Z,0.80
2022-08-01T08:49:49.459Z,1.00
2022-08-01T08:52:19.795Z,0.80
2022-08-01T08:54:51.234Z,1.00
2022-08-01T08:57:21.462Z,0.90
2022-08-01T08:59:52.095Z,1.10
2022-08-01T09:02:20.078Z,1.17
2022-08-01T09:04:50.144Z,0.97
2022-08-01T09:07:18.193Z,0.97
2022-08-01T09:09:46.160Z,0.90
2022-08-01T09:12:20.434Z,1.00
2022-08-01T09:14:51.062Z,0.70
2022-08-01T09:17:19.146Z,0.80
2022-08-01T09:19:48.955Z,0.90
2022-08-01T09:22:19.515Z,1.07
2022-08-01T09:25:00.817Z,1.10
2022-08-01T09:27:30.556Z,0.90
2022-08-01T09:30:11.343Z,0.80
2022-08-01T09:32:55.356Z,0.97
2022-08-01T09:35:30.227Z,0.70
2022-08-01T09:38:18.014Z,0.97
2022-08-01T09:40:53.997Z,0.87
2022-08-01T09:43:25.903Z,0.90
2022-08-01T09:45:55.652Z,1.00
2022-08-01T09:48:28.498Z,0.93
2022-08-01T09:51:04.441Z,0.80
2022-08-01T09:53:52.522Z,0.83
2022-08-01T09:56:22.600Z,1.00
2022-08-01T09:59:02.109Z,1.00
2022-08-01T10:01:44.125Z,0.73
2022-08-01T10:04:15.239Z,1.00
2022-08-01T10:06:45.802Z,1.20
2022-08-01T10:09:15.286Z,0.90
2022-08-01T10:11:45.319Z,0.80
2022-08-01T10:14:18.084Z,1.00
2022-08-01T10:16:53.724Z,1.10
2022-08-01T10:19:25.241Z,0.80
2022-08-01T10:22:00.375Z,0.73
2022-08-01T10:24:31.124Z,1.10
2022-08-01T10:27:09.191Z,0.90
2022-08-01T10:29:46.269Z,0.73
2022-08-01T10:32:28.778Z,0.97
2022-08-01T10:34:57.896Z,1.03
2022-08-01T10:37:27.164Z,1.07
2022-08-01T10:40:27.228Z,0.70
2022-08-01T10:42:46.519Z,1.00
2022-08-01T10:45:17.923Z,0.90
2022-08-01T10:47:53.125Z,0.83
2022-08-01T10:50:27.041Z,1.00
2022-08-01T10:53:15.308Z,0.80
2022-08-01T10:55:49.235Z,0.80
2022-08-01T10:58:23.928Z,0.80
2022-08-01T11:01:26.099Z,1.77
2022-08-01T11:04:06.961Z,1.10
2022-08-01T11:06:50.713Z,0.80
2022-08-01T11:09:36.297Z,0.90
2022-08-01T11:12:13.506Z,0.90
2022-08-01T11:15:29.419Z,0.97
2022-08-01T11:18:01.831Z,0.73
2022-08-01T11:20:32.504Z,1.00
2022-08-01T11:23:35.882Z,0.80
2022-08-01T11:26:28.890Z,0.93
2022-08-01T11:29:23.449Z,1.00
2022-08-01T11:31:53.287Z,0.93
2022-08-01T11:34:54.772Z,1.10
2022-08-01T11:37:30.615Z,0.83
2022-08-01T11:40:19.178Z,0.80
2022-08-01T11:42:49.785Z,1.07
2022-08-01T11:45:18.932Z,1.30
2022-08-01T11:47:49.944Z,1.00
2022-08-01T11:50:36.439Z,0.83
2022-08-01T11:53:07.129Z,0.83
2022-08-01T11:55:36.014Z,0.90
2022-08-01T11:58:06.370Z,0.80
2022-08-01T12:00:35.820Z,1.10
2022-08-01T12:03:06.353Z,0.90
2022-08-01T12:05:43.399Z,1.20
2022-08-01T12:08:11.622Z,0.90
2022-08-01T12:10:47.309Z,1.07
2022-08-01T12:13:18.969Z,1.00
2022-08-01T12:15:47.569Z,1.27
2022-08-01T12:18:15.881Z,1.00
2022-08-01T12:20:56.599Z,0.83
2022-08-01T12:23:25.232Z,1.20
2022-08-01T12:25:54.504Z,0.87
2022-08-01T12:28:23.754Z,0.87
2022-08-01T12:30:52.050Z,1.10
2022-08-01T12:33:23.242Z,1.00
2022-08-01T12:35:53.774Z,0.80
2022-08-01T12:38:25.820Z,1.10
2022-08-01T12:40:54.874Z,1.00
2022-08-01T12:43:28.110Z,0.77
2022-08-01T12:45:59.976Z,0.90
2022-08-01T12:48:29.050Z,0.93
2022-08-01T12:51:02.195Z,1.03
2022-08-01T12:53:41.007Z,0.80
2022-08-01T12:56:10.556Z,1.10
2022-08-01T12:58:38.855Z,1.30
2022-08-01T13:01:08.647Z,1.33
2022-08-01T13:03:36.993Z,1.13
2022-08-01T13:06:15.692Z,1.00
2022-08-01T13:08:44.549Z,1.00
2022-08-01T13:11:16.382Z,0.80
2022-08-01T13:13:48.173Z,1.20
2022-08-01T13:16:27.953Z,0.90
2022-08-01T13:19:05.859Z,0.97
2022-08-01T13:21:53.721Z,1.30
2022-08-01T13:24:27.026Z,1.13
2022-08-01T13:26:59.680Z,0.87
2022-08-01T13:29:35.239Z,1.03
2022-08-01T13:32:27.817Z,1.00
2022-08-01T13:35:04.344Z,0.80
2022-08-01T13:37:33.651Z,0.90
2022-08-01T13:40:01.609Z,1.30
2022-08-01T13:42:30.405Z,0.87
2022-08-01T13:44:58.368Z,0.97
2022-08-01T13:47:31.781Z,0.93
2022-08-01T13:50:01.796Z,1.50
2022-08-01T13:52:30.417Z,1.13
2022-08-01T13:55:00.037Z,0.60
2022-08-01T13:57:36.182Z,0.67
2022-08-01T14:00:06.569Z,0.60
2022-08-01T14:02:34.972Z,0.80
2022-08-01T14:05:03.202Z,0.80
2022-08-01T14:07:31.298Z,0.70
2022-08-01T14:10:05.172Z,0.90
2022-08-01T14:12:48.172Z,0.50
2022-08-01T14:15:18.611Z,0.80
2022-08-01T14:18:05.685Z,0.80
2022-08-01T14:20:34.176Z,1.00
2022-08-01T14:23:02.157Z,0.80
2022-08-01T14:26:04.195Z,1.20
2022-08-01T14:28:19.552Z,0.60
2022-08-01T14:30:47.512Z,0.70
2022-08-01T14:33:16.145Z,0.77
2022-08-01T14:36:03.461Z,1.10
2022-08-01T14:38:33.543Z,0.70
2022-08-01T14:41:04.716Z,0.60
2022-08-01T14:43:34.097Z,0.93
2022-08-01T14:46:04.379Z,1.00
2022-08-01T14:48:32.473Z,0.70
2022-08-01T14:51:03.437Z,0.80
2022-08-01T14:53:34.452Z,1.10
2022-08-01T14:56:06.018Z,0.70
2022-08-01T14:58:34.348Z,1.10
2022-08-01T15:01:02.493Z,1.17
2022-08-01T15:03:30.611Z,0.87
2022-08-01T15:05:59.028Z,1.00
2022-08-01T15:08:27.415Z,0.70
2022-08-01T15:10:55.383Z,0.90
2022-08-01T15:13:24.970Z,0.63
2022-08-01T15:15:52.954Z,0.90
2022-08-01T15:18:20.908Z,0.70
2022-08-01T15:20:48.856Z,0.90
2022-08-01T15:23:16.794Z,0.70
2022-08-01T15:25:44.758Z,0.70
2022-08-01T15:28:13.181Z,0.60
2022-08-01T15:30:43.156Z,0.80
2022-08-01T15:33:11.166Z,0.70
2022-08-01T15:35:39.158Z,0.97
2022-08-01T15:38:07.168Z,0.70
2022-08-01T15:40:35.680Z,1.10
2022-08-01T15:43:04.262Z,0.83
2022-08-01T15:45:48.868Z,0.80
2022-08-01T15:48:18.761Z,1.13
2022-08-01T15:50:47.007Z,0.50
2022-08-01T15:53:15.015Z,0.70
2022-08-01T15:55:44.772Z,0.60
2022-08-01T15:58:20.499Z,0.67
2022-08-01T16:00:48.445Z,0.80
2022-08-01T16:03:16.373Z,1.00
2022-08-01T16:05:46.048Z,0.67
2022-08-01T16:08:14.903Z,0.50
2022-08-01T16:10:43.245Z,0.70
2022-08-01T16:13:11.345Z,0.60
2022-08-01T16:15:40.065Z,0.50
2022-08-01T16:18:08.984Z,0.70
2022-08-01T16:20:44.403Z,1.00
2022-08-01T16:23:15.496Z,0.63
2022-08-01T16:25:44.918Z,0.50
2022-08-01T16:28:14.118Z,0.60
2022-08-01T16:30:48.596Z,0.70
2022-08-01T16:33:50.216Z,0.73
2022-08-01T16:36:15.919Z,0.77
2022-08-01T16:38:47.057Z,1.20
2022-08-01T16:41:20.204Z,0.67
2022-08-01T16:43:53.269Z,0.60
2022-08-01T16:46:23.733Z,0.90
2022-08-01T16:48:51.892Z,0.80
2022-08-01T16:51:20.022Z,0.73
2022-08-01T16:53:49.421Z,1.10
2022-08-01T16:56:17.598Z,0.60
2022-08-01T16:58:45.608Z,0.60
2022-08-01T17:02:00.333Z,0.70
2022-08-01T17:04:03.014Z,0.70
2022-08-01T17:06:31.472Z,0.80
2022-08-01T17:09:00.838Z,0.90
2022-08-01T17:11:29.870Z,0.80
2022-08-01T17:13:57.822Z,0.80
2022-08-01T17:16:25.953Z,0.80
2022-08-01T17:18:53.901Z,0.67
2022-08-01T17:21:21.863Z,0.70
2022-08-01T17:23:50.066Z,0.70
2022-08-01T17:26:19.485Z,0.60
2022-08-01T17:28:47.460Z,0.80
2022-08-01T17:31:15.393Z,0.70
2022-08-01T17:33:45.345Z,0.60
2022-08-01T17:36:15.186Z,1.20
2022-08-01T17:38:43.181Z,0.90
2022-08-01T17:41:11.244Z,0.80
2022-08-01T17:43:40.572Z,0.67
2022-08-01T17:46:08.587Z,0.60
2022-08-01T17:48:36.593Z,0.60
2022-08-01T17:51:04.787Z,0.80
2022-08-01T17:53:32.797Z,0.90
2022-08-01T17:56:02.432Z,0.60
2022-08-01T17:58:49.599Z,0.80
2022-08-01T18:01:20.945Z,0.93
2022-08-01T18:03:49.747Z,0.93
2022-08-01T18:06:19.925Z,0.73
2022-08-01T18:08:53.293Z,1.13
2022-08-01T18:11:24.759Z,1.03
2022-08-01T18:13:55.303Z,0.80
2022-08-01T18:16:24.640Z,1.00
2022-08-01T18:18:52.626Z,0.90
2022-08-01T18:21:20.709Z,1.03
2022-08-01T18:23:51.293Z,1.57
2022-08-01T18:26:20.503Z,1.05
2022-08-01T18:28:48.585Z,1.00
2022-08-01T18:31:17.838Z,1.27
2022-08-01T18:33:47.783Z,1.23
2022-08-01T18:36:31.689Z,1.70
2022-08-01T18:39:01.879Z,1.20
2022-08-01T18:41:32.540Z,0.97
2022-08-01T18:44:04.434Z,0.97
2022-08-01T18:46:38.991Z,1.03
2022-08-01T18:49:10.883Z,0.90
2022-08-01T18:51:44.719Z,0.80
2022-08-01T18:54:15.024Z,0.93
2022-08-01T18:56:43.691Z,1.03
2022-08-01T18:59:11.669Z,1.00
2022-08-01T19:01:40.083Z,1.17
2022-08-01T19:04:10.565Z,1.13
2022-08-01T19:06:38.795Z,0.70
2022-08-01T19:09:09.178Z,1.00
2022-08-01T19:11:37.730Z,1.00
2022-08-01T19:14:05.742Z,1.03
2022-08-01T19:16:33.951Z,1.00
2022-08-01T19:19:04.866Z,0.70
2022-08-01T19:21:36.333Z,1.03
2022-08-01T19:24:23.271Z,0.93
2022-08-01T19:26:53.778Z,1.10
2022-08-01T19:29:23.964Z,0.90
2022-08-01T19:32:05.491Z,1.10
2022-08-01T19:34:36.620Z,1.20
2022-08-01T19:37:06.600Z,0.87
2022-08-01T19:39:34.824Z,0.90
2022-08-01T19:42:04.122Z,1.07
2022-08-01T19:44:32.349Z,1.37
2022-08-01T19:47:01.118Z,1.90
2022-08-01T19:49:29.079Z,3.27
2022-08-01T19:52:01.937Z,1.20
2022-08-01T19:54:35.290Z,1.50
2022-08-01T19:57:06.262Z,1.33
2022-08-01T19:59:35.596Z,0.90
2022-08-01T20:02:04.254Z,1.00
2022-08-01T20:04:33.626Z,0.70
2022-08-01T20:07:02.956Z,1.13
2022-08-01T20:09:33.424Z,0.90
2022-08-01T20:12:01.437Z,0.77
2022-08-01T20:14:31.357Z,1.07
2022-08-01T20:16:59.521Z,1.17
2022-08-01T20:19:29.429Z,1.10
2022-08-01T20:22:03.226Z,1.30
2022-08-01T20:24:39.510Z,1.00
2022-08-01T20:27:09.969Z,0.80
2022-08-01T20:29:38.339Z,0.80
2022-08-01T20:32:07.083Z,0.90
2022-08-01T20:34:37.884Z,0.73
2022-08-01T20:37:09.326Z,1.00
2022-08-01T20:39:45.010Z,0.90
2022-08-01T20:42:14.025Z,1.10
2022-08-01T20:44:42.497Z,1.10
2022-08-01T20:47:11.018Z,0.97
2022-08-01T20:49:39.596Z,1.40
2022-08-01T20:52:12.039Z,1.27
2022-08-01T20:54:42.545Z,1.43
2022-08-01T20:57:16.860Z,1.20
2022-08-01T20:59:56.614Z,1.43
2022-08-01T21:02:41.446Z,1.13
2022-08-01T21:05:12.515Z,1.63
2022-08-01T21:07:44.422Z,1.40
2022-08-01T21:10:16.425Z,1.00
2022-08-01T21:12:46.237Z,1.00
2022-08-01T21:15:20.008Z,1.20
2022-08-01T21:17:57.927Z,0.90
2022-08-01T21:20:29.285Z,1.43
2022-08-01T21:23:09.106Z,1.47
2022-08-01T21:25:38.692Z,1.33
2022-08-01T21:28:07.004Z,1.00
2022-08-01T21:30:37.032Z,1.00
2022-08-01T21:33:06.006Z,0.80
2022-08-01T21:35:35.024Z,0.90
2022-08-01T21:38:03.404Z,1.40
2022-08-01T21:40:33.689Z,1.10
2022-08-01T21:43:04.206Z,0.93
2022-08-01T21:45:32.301Z,1.00
2022-08-01T21:48:00.736Z,1.40
2022-08-01T21:50:32.909Z,0.70
2022-08-01T21:53:11.852Z,0.80
2022-08-01T21:55:52.208Z,0.83
2022-08-01T21:58:33.506Z,0.90
2022-08-01T22:01:07.219Z,0.90
2022-08-01T22:03:45.512Z,0.73
2022-08-01T22:06:14.887Z,1.30
2022-08-01T22:08:50.584Z,0.80
2022-08-01T22:11:24.662Z,0.80
2022-08-01T22:13:57.672Z,1.00
2022-08-01T22:16:27.691Z,0.90
2022-08-01T22:18:55.948Z,0.90
2022-08-01T22:21:24.424Z,1.17
2022-08-01T22:23:53.865Z,0.60
2022-08-01T22:26:27.244Z,1.70
2022-08-01T22:28:59.685Z,1.10
2022-08-01T22:31:28.478Z,1.10
2022-08-01T22:33:56.889Z,1.00
2022-08-01T22:36:24.865Z,1.20
2022-08-01T22:38:52.799Z,1.00
2022-08-01T22:41:30.235Z,0.90
2022-08-01T22:44:27.457Z,0.80
2022-08-01T22:47:04.208Z,0.87
2022-08-01T22:49:35.851Z,0.90
2022-08-01T22:52:09.062Z,1.00
2022-08-01T22:54:38.687Z,1.13
2022-08-01T22:57:11.587Z,1.30
2022-08-01T22:59:47.205Z,1.20
2022-08-01T23:02:17.844Z,1.17
2022-08-01T23:04:48.041Z,1.03
2022-08-01T23:07:20.862Z,1.50
2022-08-01T23:09:53.800Z,1.00
2022-08-01T23:12:25.220Z,1.13
2022-08-01T23:14:56.659Z,1.30
2022-08-01T23:17:28.523Z,1.10
2022-08-01T23:19:58.907Z,1.30
2022-08-01T23:22:31.113Z,1.03
2022-08-01T23:25:04.320Z,1.80
2022-08-01T23:27:51.469Z,1.40
2022-08-01T23:30:26.109Z,1.00
2022-08-01T23:32:54.088Z,1.50
2022-08-01T23:35:22.405Z,0.93
2022-08-01T23:37:51.404Z,1.23
2022-08-01T23:40:20.204Z,0.90
2022-08-01T23:42:48.181Z,1.10
2022-08-01T23:45:16.117Z,1.03
2022-08-01T23:47:45.553Z,1.13
2022-08-01T23:50:13.573Z,1.60
2022-08-01T23:52:48.581Z,1.10
2022-08-01T23:55:18.069Z,1.10
2022-08-01T23:57:46.001Z,1.07
